sensor_id;sensor_type;location;lat;lon;timestamp;P1;durP1;ratioP1;P2;durP2;ratioP2
7989;SDS011;4040;42.848;23.034;2022-12-18T00:01:12;1.20;;;1.17;;
7989;SDS011;4040;42.848;23.034;2022-12-18T00:07:03;2.37;;;1.10;;
7989;SDS011;4040;42.848;23.034;2022-12-18T00:12:51;0.83;;;0.83;;
7989;SDS011;4040;42.848;23.034;2022-12-18T00:18:42;1.70;;;1.57;;
7989;SDS011;4040;42.848;23.034;2022-12-18T00:24:31;1.73;;;1.43;;
7989;SDS011;4040;42.848;23.034;2022-12-18T00:30:20;3.10;;;1.47;;
7989;SDS011;4040;42.848;23.034;2022-12-18T00:36:11;1.67;;;1.57;;
7989;SDS011;4040;42.848;23.034;2022-12-18T00:42:01;1.73;;;1.63;;
7989;SDS011;4040;42.848;23.034;2022-12-18T00:48:07;0.90;;;0.90;;
7989;SDS011;4040;42.848;23.034;2022-12-18T00:53:57;1.63;;;1.33;;
7989;SDS011;4040;42.848;23.034;2022-12-18T00:59:46;0.80;;;0.80;;
7989;SDS011;4040;42.848;23.034;2022-12-18T01:09:48;0.90;;;0.90;;
7989;SDS011;4040;42.848;23.034;2022-12-18T01:15:37;1.37;;;1.37;;
7989;SDS011;4040;42.848;23.034;2022-12-18T01:21:25;1.53;;;1.43;;
7989;SDS011;4040;42.848;23.034;2022-12-18T01:27:16;1.93;;;1.83;;
7989;SDS011;4040;42.848;23.034;2022-12-18T01:33:04;0.80;;;0.80;;
7989;SDS011;4040;42.848;23.034;2022-12-18T01:38:53;1.63;;;1.53;;
7989;SDS011;4040;42.848;23.034;2022-12-18T01:51:13;0.60;;;0.60;;
7989;SDS011;4040;42.848;23.034;2022-12-18T01:57:02;1.37;;;1.27;;
7989;SDS011;4040;42.848;23.034;2022-12-18T02:02:52;1.77;;;1.30;;
7989;SDS011;4040;42.848;23.034;2022-12-18T02:13:03;3.07;;;1.83;;
7989;SDS011;4040;42.848;23.034;2022-12-18T02:19:01;1.17;;;1.17;;
7989;SDS011;4040;42.848;23.034;2022-12-18T02:24:58;1.37;;;1.27;;
7989;SDS011;4040;42.848;23.034;2022-12-18T02:30:55;2.20;;;2.00;;
7989;SDS011;4040;42.848;23.034;2022-12-18T02:36:47;1.33;;;1.30;;
7989;SDS011;4040;42.848;23.034;2022-12-18T02:42:38;1.37;;;1.27;;
7989;SDS011;4040;42.848;23.034;2022-12-18T02:48:30;1.00;;;1.00;;
7989;SDS011;4040;42.848;23.034;2022-12-18T02:54:23;0.67;;;0.67;;
7989;SDS011;4040;42.848;23.034;2022-12-18T03:00:22;0.90;;;0.90;;
7989;SDS011;4040;42.848;23.034;2022-12-18T03:06:22;1.43;;;1.33;;
7989;SDS011;4040;42.848;23.034;2022-12-18T03:12:15;1.93;;;1.67;;
7989;SDS011;4040;42.848;23.034;2022-12-18T03:18:12;0.90;;;0.90;;
7989;SDS011;4040;42.848;23.034;2022-12-18T03:24:07;2.93;;;2.73;;
7989;SDS011;4040;42.848;23.034;2022-12-18T03:30:00;1.57;;;1.47;;
7989;SDS011;4040;42.848;23.034;2022-12-18T03:35:53;2.40;;;2.20;;
7989;SDS011;4040;42.848;23.034;2022-12-18T03:41:45;2.20;;;2.10;;
7989;SDS011;4040;42.848;23.034;2022-12-18T03:47:41;6.83;;;2.77;;
7989;SDS011;4040;42.848;23.034;2022-12-18T03:53:36;2.57;;;2.27;;
7989;SDS011;4040;42.848;23.034;2022-12-18T03:59:32;0.70;;;0.70;;
7989;SDS011;4040;42.848;23.034;2022-12-18T04:05:23;1.97;;;1.83;;
7989;SDS011;4040;42.848;23.034;2022-12-18T04:15:37;6.13;;;3.00;;
7989;SDS011;4040;42.848;23.034;2022-12-18T04:21:26;1.40;;;1.30;;
7989;SDS011;4040;42.848;23.034;2022-12-18T04:27:15;2.77;;;1.67;;
7989;SDS011;4040;42.848;23.034;2022-12-18T04:33:09;1.50;;;1.40;;
7989;SDS011;4040;42.848;23.034;2022-12-18T04:38:58;3.00;;;2.60;;
7989;SDS011;4040;42.848;23.034;2022-12-18T04:44:47;1.03;;;1.03;;
7989;SDS011;4040;42.848;23.034;2022-12-18T04:50:37;6.17;;;2.17;;
7989;SDS011;4040;42.848;23.034;2022-12-18T04:56:25;2.53;;;2.43;;
7989;SDS011;4040;42.848;23.034;2022-12-18T05:02:14;1.47;;;1.20;;
7989;SDS011;4040;42.848;23.034;2022-12-18T05:08:04;3.13;;;1.37;;
7989;SDS011;4040;42.848;23.034;2022-12-18T05:18:15;6.27;;;2.50;;
7989;SDS011;4040;42.848;23.034;2022-12-18T05:24:05;2.83;;;2.43;;
7989;SDS011;4040;42.848;23.034;2022-12-18T05:29:54;2.23;;;2.13;;
7989;SDS011;4040;42.848;23.034;2022-12-18T05:35:43;2.13;;;2.03;;
7989;SDS011;4040;42.848;23.034;2022-12-18T05:41:34;27.67;;;12.87;;
7989;SDS011;4040;42.848;23.034;2022-12-18T05:47:22;32.10;;;16.80;;
7989;SDS011;4040;42.848;23.034;2022-12-18T05:53:12;27.63;;;12.77;;
7989;SDS011;4040;42.848;23.034;2022-12-18T05:59:03;27.60;;;13.57;;
7989;SDS011;4040;42.848;23.034;2022-12-18T06:04:52;27.90;;;13.83;;
7989;SDS011;4040;42.848;23.034;2022-12-18T06:10:41;28.67;;;15.30;;
7989;SDS011;4040;42.848;23.034;2022-12-18T06:20:56;19.37;;;11.70;;
7989;SDS011;4040;42.848;23.034;2022-12-18T06:26:46;22.80;;;12.07;;
7989;SDS011;4040;42.848;23.034;2022-12-18T06:49:23;30.70;;;17.73;;
7989;SDS011;4040;42.848;23.034;2022-12-18T06:55:14;33.80;;;17.50;;
7989;SDS011;4040;42.848;23.034;2022-12-18T07:01:03;30.07;;;15.47;;
7989;SDS011;4040;42.848;23.034;2022-12-18T07:06:53;30.57;;;15.27;;
7989;SDS011;4040;42.848;23.034;2022-12-18T07:12:43;34.43;;;16.67;;
7989;SDS011;4040;42.848;23.034;2022-12-18T07:22:13;28.23;;;15.17;;
7989;SDS011;4040;42.848;23.034;2022-12-18T08:45:08;35.40;;;17.90;;
7989;SDS011;4040;42.848;23.034;2022-12-18T08:50:59;29.63;;;16.03;;
7989;SDS011;4040;42.848;23.034;2022-12-18T08:56:48;33.53;;;17.23;;
7989;SDS011;4040;42.848;23.034;2022-12-18T09:02:37;25.80;;;13.37;;
7989;SDS011;4040;42.848;23.034;2022-12-18T09:13:57;46.20;;;23.50;;
7989;SDS011;4040;42.848;23.034;2022-12-18T09:19:46;36.70;;;17.90;;
7989;SDS011;4040;42.848;23.034;2022-12-18T09:25:37;30.53;;;15.40;;
7989;SDS011;4040;42.848;23.034;2022-12-18T09:31:26;25.67;;;12.83;;
7989;SDS011;4040;42.848;23.034;2022-12-18T09:37:14;19.43;;;10.87;;
7989;SDS011;4040;42.848;23.034;2022-12-18T09:43:05;28.17;;;14.43;;
7989;SDS011;4040;42.848;23.034;2022-12-18T09:48:56;22.77;;;11.97;;
7989;SDS011;4040;42.848;23.034;2022-12-18T09:54:48;23.27;;;12.73;;
7989;SDS011;4040;42.848;23.034;2022-12-18T10:00:43;24.47;;;12.33;;
7989;SDS011;4040;42.848;23.034;2022-12-18T10:06:34;28.37;;;14.67;;
7989;SDS011;4040;42.848;23.034;2022-12-18T10:12:29;20.43;;;10.73;;
7989;SDS011;4040;42.848;23.034;2022-12-18T10:18:29;27.43;;;12.90;;
7989;SDS011;4040;42.848;23.034;2022-12-18T10:24:32;21.60;;;10.43;;
7989;SDS011;4040;42.848;23.034;2022-12-18T10:30:26;22.30;;;10.67;;
7989;SDS011;4040;42.848;23.034;2022-12-18T10:36:17;21.03;;;9.57;;
7989;SDS011;4040;42.848;23.034;2022-12-18T10:42:09;27.43;;;11.80;;
7989;SDS011;4040;42.848;23.034;2022-12-18T10:48:02;18.23;;;9.63;;
7989;SDS011;4040;42.848;23.034;2022-12-18T10:53:54;17.33;;;8.93;;
7989;SDS011;4040;42.848;23.034;2022-12-18T10:59:51;21.10;;;9.17;;
7989;SDS011;4040;42.848;23.034;2022-12-18T11:05:41;24.67;;;11.00;;
7989;SDS011;4040;42.848;23.034;2022-12-18T11:11:33;30.70;;;15.00;;
7989;SDS011;4040;42.848;23.034;2022-12-18T11:17:25;17.73;;;8.50;;
7989;SDS011;4040;42.848;23.034;2022-12-18T11:23:18;17.43;;;8.93;;
7989;SDS011;4040;42.848;23.034;2022-12-18T11:29:15;16.50;;;9.33;;
7989;SDS011;4040;42.848;23.034;2022-12-18T11:35:13;20.20;;;11.17;;
7989;SDS011;4040;42.848;23.034;2022-12-18T11:41:06;22.50;;;11.33;;
7989;SDS011;4040;42.848;23.034;2022-12-18T11:47:07;22.07;;;11.87;;
7989;SDS011;4040;42.848;23.034;2022-12-18T11:53:01;22.97;;;10.80;;
7989;SDS011;4040;42.848;23.034;2022-12-18T11:58:52;27.60;;;13.63;;
7989;SDS011;4040;42.848;23.034;2022-12-18T12:04:50;21.40;;;10.80;;
7989;SDS011;4040;42.848;23.034;2022-12-18T12:10:51;21.83;;;10.77;;
7989;SDS011;4040;42.848;23.034;2022-12-18T12:16:47;24.13;;;12.03;;
7989;SDS011;4040;42.848;23.034;2022-12-18T12:27:08;19.50;;;11.37;;
7989;SDS011;4040;42.848;23.034;2022-12-18T12:33:07;24.70;;;11.83;;
7989;SDS011;4040;42.848;23.034;2022-12-18T12:39:08;25.90;;;11.93;;
7989;SDS011;4040;42.848;23.034;2022-12-18T12:45:04;22.70;;;11.60;;
7989;SDS011;4040;42.848;23.034;2022-12-18T12:50:55;20.47;;;11.40;;
7989;SDS011;4040;42.848;23.034;2022-12-18T12:56:46;19.20;;;9.87;;
7989;SDS011;4040;42.848;23.034;2022-12-18T13:02:44;16.77;;;9.17;;
7989;SDS011;4040;42.848;23.034;2022-12-18T13:08:51;14.10;;;8.67;;
7989;SDS011;4040;42.848;23.034;2022-12-18T13:14:43;17.13;;;7.80;;
7989;SDS011;4040;42.848;23.034;2022-12-18T13:20:36;18.77;;;9.13;;
7989;SDS011;4040;42.848;23.034;2022-12-18T13:26:30;13.57;;;8.17;;
7989;SDS011;4040;42.848;23.034;2022-12-18T13:32:21;20.33;;;8.63;;
7989;SDS011;4040;42.848;23.034;2022-12-18T13:38:21;14.23;;;8.50;;
7989;SDS011;4040;42.848;23.034;2022-12-18T13:44:11;17.10;;;8.37;;
7989;SDS011;4040;42.848;23.034;2022-12-18T13:50:02;17.80;;;10.27;;
7989;SDS011;4040;42.848;23.034;2022-12-18T13:55:59;18.13;;;9.17;;
7989;SDS011;4040;42.848;23.034;2022-12-18T14:01:51;19.80;;;9.50;;
7989;SDS011;4040;42.848;23.034;2022-12-18T14:07:41;12.87;;;8.00;;
7989;SDS011;4040;42.848;23.034;2022-12-18T14:13:32;24.00;;;11.80;;
7989;SDS011;4040;42.848;23.034;2022-12-18T14:19:23;22.60;;;12.43;;
7989;SDS011;4040;42.848;23.034;2022-12-18T14:29:35;19.37;;;12.03;;
7989;SDS011;4040;42.848;23.034;2022-12-18T14:35:24;30.80;;;15.50;;
7989;SDS011;4040;42.848;23.034;2022-12-18T14:41:13;23.80;;;12.40;;
7989;SDS011;4040;42.848;23.034;2022-12-18T14:47:05;18.97;;;11.23;;
7989;SDS011;4040;42.848;23.034;2022-12-18T14:53:01;31.97;;;14.83;;
7989;SDS011;4040;42.848;23.034;2022-12-18T14:58:53;25.23;;;12.83;;
7989;SDS011;4040;42.848;23.034;2022-12-18T15:04:45;22.57;;;11.57;;
7989;SDS011;4040;42.848;23.034;2022-12-18T15:10:34;22.77;;;12.90;;
7989;SDS011;4040;42.848;23.034;2022-12-18T15:16:34;30.13;;;12.50;;
7989;SDS011;4040;42.848;23.034;2022-12-18T15:22:25;20.83;;;10.53;;
7989;SDS011;4040;42.848;23.034;2022-12-18T15:32:37;18.70;;;10.23;;
7989;SDS011;4040;42.848;23.034;2022-12-18T15:38:31;31.57;;;15.17;;
7989;SDS011;4040;42.848;23.034;2022-12-18T15:44:21;21.80;;;11.73;;
7989;SDS011;4040;42.848;23.034;2022-12-18T15:50:12;22.40;;;11.63;;
7989;SDS011;4040;42.848;23.034;2022-12-18T15:56:04;22.60;;;11.13;;
7989;SDS011;4040;42.848;23.034;2022-12-18T16:02:09;22.83;;;10.90;;
7989;SDS011;4040;42.848;23.034;2022-12-18T16:08:04;26.70;;;12.53;;
7989;SDS011;4040;42.848;23.034;2022-12-18T16:13:54;33.37;;;14.37;;
7989;SDS011;4040;42.848;23.034;2022-12-18T16:19:43;28.70;;;14.60;;
7989;SDS011;4040;42.848;23.034;2022-12-18T16:25:32;22.10;;;12.73;;
7989;SDS011;4040;42.848;23.034;2022-12-18T16:35:50;41.97;;;18.77;;
7989;SDS011;4040;42.848;23.034;2022-12-18T16:41:39;30.20;;;14.23;;
7989;SDS011;4040;42.848;23.034;2022-12-18T16:47:28;24.77;;;12.83;;
7989;SDS011;4040;42.848;23.034;2022-12-18T16:53:18;23.97;;;11.43;;
7989;SDS011;4040;42.848;23.034;2022-12-18T16:59:09;24.60;;;11.17;;
7989;SDS011;4040;42.848;23.034;2022-12-18T17:04:59;22.10;;;10.63;;
7989;SDS011;4040;42.848;23.034;2022-12-18T17:10:49;25.30;;;11.83;;
7989;SDS011;4040;42.848;23.034;2022-12-18T17:16:38;40.00;;;17.63;;
7989;SDS011;4040;42.848;23.034;2022-12-18T17:22:27;20.55;;;11.15;;
7989;SDS011;4040;42.848;23.034;2022-12-18T17:28:18;38.20;;;16.77;;
7989;SDS011;4040;42.848;23.034;2022-12-18T17:38:29;39.40;;;18.03;;
7989;SDS011;4040;42.848;23.034;2022-12-18T17:44:19;45.73;;;21.13;;
7989;SDS011;4040;42.848;23.034;2022-12-18T17:50:09;42.97;;;17.67;;
7989;SDS011;4040;42.848;23.034;2022-12-18T17:55:58;43.57;;;18.80;;
7989;SDS011;4040;42.848;23.034;2022-12-18T18:01:50;39.77;;;17.00;;
7989;SDS011;4040;42.848;23.034;2022-12-18T18:07:41;63.50;;;24.77;;
7989;SDS011;4040;42.848;23.034;2022-12-18T18:13:30;48.80;;;20.33;;
7989;SDS011;4040;42.848;23.034;2022-12-18T18:19:37;37.57;;;17.67;;
7989;SDS011;4040;42.848;23.034;2022-12-18T18:25:27;35.67;;;15.87;;
7989;SDS011;4040;42.848;23.034;2022-12-18T18:41:28;27.90;;;11.63;;
7989;SDS011;4040;42.848;23.034;2022-12-18T18:47:17;34.00;;;15.47;;
7989;SDS011;4040;42.848;23.034;2022-12-18T18:53:06;30.30;;;14.80;;
7989;SDS011;4040;42.848;23.034;2022-12-18T18:58:57;40.33;;;15.87;;
7989;SDS011;4040;42.848;23.034;2022-12-18T19:04:46;47.67;;;22.27;;
7989;SDS011;4040;42.848;23.034;2022-12-18T19:10:38;44.03;;;19.97;;
7989;SDS011;4040;42.848;23.034;2022-12-18T19:16:30;59.50;;;18.07;;
7989;SDS011;4040;42.848;23.034;2022-12-18T19:22:21;33.50;;;16.07;;
7989;SDS011;4040;42.848;23.034;2022-12-18T19:28:11;56.17;;;22.07;;
7989;SDS011;4040;42.848;23.034;2022-12-18T19:34:02;37.17;;;16.47;;
7989;SDS011;4040;42.848;23.034;2022-12-18T19:43:54;45.43;;;19.47;;
7989;SDS011;4040;42.848;23.034;2022-12-18T19:49:44;49.80;;;21.17;;
7989;SDS011;4040;42.848;23.034;2022-12-18T19:55:34;40.20;;;16.70;;
7989;SDS011;4040;42.848;23.034;2022-12-18T20:01:27;48.83;;;21.10;;
7989;SDS011;4040;42.848;23.034;2022-12-18T20:07:18;30.40;;;14.23;;
7989;SDS011;4040;42.848;23.034;2022-12-18T20:13:07;27.90;;;13.67;;
7989;SDS011;4040;42.848;23.034;2022-12-18T20:18:56;25.73;;;12.73;;
7989;SDS011;4040;42.848;23.034;2022-12-18T20:24:47;29.80;;;13.47;;
7989;SDS011;4040;42.848;23.034;2022-12-18T20:30:35;25.67;;;12.63;;
7989;SDS011;4040;42.848;23.034;2022-12-18T20:36:24;37.23;;;14.40;;
7989;SDS011;4040;42.848;23.034;2022-12-18T20:46:37;25.60;;;13.83;;
7989;SDS011;4040;42.848;23.034;2022-12-18T20:52:25;29.07;;;12.53;;
7989;SDS011;4040;42.848;23.034;2022-12-18T20:58:14;28.23;;;15.40;;
7989;SDS011;4040;42.848;23.034;2022-12-18T21:04:04;25.67;;;12.93;;
7989;SDS011;4040;42.848;23.034;2022-12-18T21:09:53;27.80;;;12.67;;
7989;SDS011;4040;42.848;23.034;2022-12-18T21:15:42;28.47;;;14.73;;
7989;SDS011;4040;42.848;23.034;2022-12-18T21:21:33;38.40;;;16.13;;
7989;SDS011;4040;42.848;23.034;2022-12-18T21:27:21;30.57;;;15.10;;
7989;SDS011;4040;42.848;23.034;2022-12-18T21:33:10;30.77;;;12.80;;
7989;SDS011;4040;42.848;23.034;2022-12-18T21:39:01;27.70;;;12.47;;
7989;SDS011;4040;42.848;23.034;2022-12-18T21:49:11;27.90;;;14.00;;
7989;SDS011;4040;42.848;23.034;2022-12-18T21:55:05;17.07;;;10.27;;
7989;SDS011;4040;42.848;23.034;2022-12-18T22:00:54;22.80;;;12.13;;
7989;SDS011;4040;42.848;23.034;2022-12-18T22:06:43;21.07;;;11.67;;
7989;SDS011;4040;42.848;23.034;2022-12-18T22:12:34;24.43;;;11.13;;
7989;SDS011;4040;42.848;23.034;2022-12-18T22:18:23;21.63;;;10.13;;
7989;SDS011;4040;42.848;23.034;2022-12-18T22:24:12;24.70;;;11.93;;
7989;SDS011;4040;42.848;23.034;2022-12-18T22:30:03;23.13;;;11.17;;
7989;SDS011;4040;42.848;23.034;2022-12-18T22:35:53;20.80;;;11.50;;
7989;SDS011;4040;42.848;23.034;2022-12-18T22:41:42;21.87;;;11.30;;
7989;SDS011;4040;42.848;23.034;2022-12-18T22:51:55;17.90;;;10.90;;
7989;SDS011;4040;42.848;23.034;2022-12-18T22:57:44;23.10;;;11.53;;
7989;SDS011;4040;42.848;23.034;2022-12-18T23:18:53;21.97;;;10.57;;
7989;SDS011;4040;42.848;23.034;2022-12-18T23:24:42;21.40;;;11.37;;
7989;SDS011;4040;42.848;23.034;2022-12-18T23:30:31;20.23;;;11.23;;
7989;SDS011;4040;42.848;23.034;2022-12-18T23:36:21;20.13;;;11.00;;
7989;SDS011;4040;42.848;23.034;2022-12-18T23:42:11;28.03;;;14.10;;
7989;SDS011;4040;42.848;23.034;2022-12-18T23:47:59;25.20;;;13.67;;
7989;SDS011;4040;42.848;23.034;2022-12-18T23:53:49;20.67;;;10.40;;
7989;SDS011;4040;42.848;23.034;2022-12-18T23:59:38;22.47;;;12.30;;
